createdAt,value
2018-05-08T00:02:03.043Z,69.80
2018-05-08T00:04:30.661Z,69.20
2018-05-08T00:06:58.114Z,69.00
2018-05-08T00:09:25.599Z,69.60
2018-05-08T00:11:53.067Z,69.80
2018-05-08T00:14:20.526Z,70.10
2018-05-08T00:16:48.023Z,70.20
2018-05-08T00:19:15.541Z,70.60
2018-05-08T00:21:43.094Z,70.60
2018-05-08T00:24:10.555Z,72.20
2018-05-08T00:26:39.625Z,72.50
2018-05-08T00:29:07.314Z,72.50
2018-05-08T00:31:34.766Z,73.50
2018-05-08T00:34:02.246Z,73.60
2018-05-08T00:36:29.726Z,72.60
2018-05-08T00:38:57.182Z,73.70
2018-05-08T00:41:24.828Z,73.40
2018-05-08T00:43:52.283Z,73.50
2018-05-08T00:46:19.754Z,73.70
2018-05-08T00:48:47.212Z,74.00
2018-05-08T00:51:14.748Z,74.60
2018-05-08T00:53:43.114Z,75.10
2018-05-08T00:56:10.594Z,75.20
2018-05-08T00:58:38.068Z,75.00
2018-05-08T01:01:05.526Z,74.70
2018-05-08T01:03:33.259Z,74.70
2018-05-08T01:06:00.798Z,75.80
2018-05-08T01:08:28.486Z,76.00
2018-05-08T01:10:55.943Z,75.40
2018-05-08T01:13:24.927Z,76.80
2018-05-08T01:15:52.418Z,76.80
2018-05-08T01:18:20.156Z,78.20
2018-05-08T01:20:47.614Z,78.50
2018-05-08T01:23:15.295Z,79.00
2018-05-08T01:25:42.833Z,78.90
2018-05-08T01:28:10.308Z,79.30
2018-05-08T01:30:38.066Z,78.50
2018-05-08T01:33:05.826Z,78.20
2018-05-08T01:35:33.292Z,79.30
2018-05-08T01:38:00.762Z,78.60
2018-05-08T01:40:28.426Z,80.10
2018-05-08T01:42:55.891Z,79.90
2018-05-08T01:45:23.363Z,80.20
2018-05-08T01:47:51.347Z,80.30
2018-05-08T01:50:18.818Z,80.50
2018-05-08T01:52:46.378Z,81.10
2018-05-08T01:55:13.844Z,82.10
2018-05-08T01:57:41.314Z,82.60
2018-05-08T02:00:08.770Z,84.80
2018-05-08T02:02:36.234Z,85.10
2018-05-08T02:05:04.015Z,85.40
2018-05-08T02:07:31.682Z,84.60
2018-05-08T02:09:59.158Z,85.20
2018-05-08T02:12:27.394Z,86.00
2018-05-08T02:14:55.076Z,86.10
2018-05-08T02:17:22.838Z,86.60
2018-05-08T02:19:50.299Z,87.00
2018-05-08T02:22:18.063Z,87.30
2018-05-08T02:24:45.740Z,89.10
2018-05-08T02:27:13.202Z,90.50
2018-05-08T02:29:40.707Z,90.60
2018-05-08T02:32:08.158Z,91.10
2018-05-08T02:34:35.619Z,91.50
2018-05-08T02:37:03.118Z,92.00
2018-05-08T02:39:30.886Z,91.90
2018-05-08T02:41:58.665Z,93.00
2018-05-08T02:44:26.431Z,93.20
2018-05-08T02:46:54.170Z,94.10
2018-05-08T02:49:21.639Z,94.20
2018-05-08T02:51:49.403Z,94.80
2018-05-08T02:54:17.085Z,94.90
2018-05-08T02:56:44.622Z,95.70
2018-05-08T02:59:12.388Z,96.10
2018-05-08T03:01:40.158Z,96.20
2018-05-08T03:04:07.915Z,96.50
2018-05-08T03:06:35.554Z,96.90
2018-05-08T03:09:03.030Z,97.20
2018-05-08T03:11:30.604Z,97.60
2018-05-08T03:13:58.362Z,98.20
2018-05-08T03:16:25.852Z,98.40
2018-05-08T03:18:53.585Z,99.90
2018-05-08T03:21:21.043Z,99.90
2018-05-08T03:23:48.815Z,99.90
2018-05-08T03:26:16.587Z,99.90
2018-05-08T03:28:44.070Z,99.90
2018-05-08T03:31:11.646Z,99.90
2018-05-08T03:33:39.098Z,99.90
2018-05-08T03:36:06.710Z,99.90
2018-05-08T03:38:34.170Z,99.90
2018-05-08T03:41:01.639Z,99.90
2018-05-08T03:43:29.119Z,99.90
2018-05-08T03:45:56.860Z,99.90
2018-05-08T03:48:24.313Z,99.90
2018-05-08T03:50:51.998Z,99.90
2018-05-08T03:53:19.534Z,99.90
2018-05-08T03:55:47.014Z,99.90
2018-05-08T03:58:14.759Z,99.90
2018-05-08T04:04:00.983Z,99.90
2018-05-08T04:06:50.727Z,99.90
2018-05-08T04:09:18.191Z,99.90
2018-05-08T04:11:45.778Z,99.90
2018-05-08T04:14:13.549Z,99.90
2018-05-08T04:16:41.306Z,99.90
2018-05-08T04:19:08.775Z,99.90
2018-05-08T04:21:36.251Z,99.90
2018-05-08T04:24:03.990Z,99.90
2018-05-08T04:26:31.767Z,99.90
2018-05-08T04:28:59.242Z,99.90
2018-05-08T04:31:26.885Z,99.90
2018-05-08T04:33:54.362Z,99.90
2018-05-08T04:36:21.890Z,99.90
2018-05-08T04:38:49.364Z,99.90
2018-05-08T04:41:17.115Z,99.90
2018-05-08T04:43:44.881Z,99.90
2018-05-08T04:46:12.350Z,99.90
2018-05-08T04:48:39.802Z,99.90
2018-05-08T04:51:07.567Z,99.90
2018-05-08T04:53:35.234Z,99.90
2018-05-08T04:56:02.694Z,99.90
2018-05-08T04:58:30.245Z,99.90
2018-05-08T05:00:57.707Z,99.90
2018-05-08T05:03:25.176Z,99.90
2018-05-08T05:05:52.633Z,99.90
2018-05-08T05:08:20.384Z,99.90
2018-05-08T05:10:47.838Z,99.90
2018-05-08T05:13:15.608Z,99.90
2018-05-08T05:15:43.079Z,99.90
2018-05-08T05:18:10.826Z,99.90
2018-05-08T05:20:38.292Z,99.90
2018-05-08T05:23:06.029Z,99.90
2018-05-08T05:25:33.513Z,99.90
2018-05-08T05:28:00.973Z,99.90
2018-05-08T05:30:28.739Z,99.90
2018-05-08T05:32:56.511Z,99.90
2018-05-08T05:35:24.198Z,99.90
2018-05-08T05:37:52.198Z,99.90
2018-05-08T05:40:19.706Z,99.90
2018-05-08T05:42:47.940Z,99.90
2018-05-08T05:45:15.639Z,99.90
2018-05-08T05:47:43.310Z,99.90
2018-05-08T05:50:10.775Z,99.90
2018-05-08T05:52:38.255Z,99.90
2018-05-08T05:55:05.712Z,99.90
2018-05-08T05:57:33.195Z,99.90
2018-05-08T06:00:00.717Z,99.90
2018-05-08T06:02:28.158Z,99.90
2018-05-08T06:04:55.905Z,99.90
2018-05-08T06:07:23.374Z,99.90
2018-05-08T06:09:50.830Z,99.90
2018-05-08T06:12:18.595Z,99.90
2018-05-08T06:14:46.358Z,99.90
2018-05-08T06:17:13.998Z,99.90
2018-05-08T06:19:41.578Z,99.90
2018-05-08T06:22:09.042Z,99.90
2018-05-08T06:24:37.414Z,99.90
2018-05-08T06:27:05.187Z,99.90
2018-05-08T06:29:32.946Z,99.90
2018-05-08T06:32:00.791Z,99.90
2018-05-08T06:34:28.482Z,99.90
2018-05-08T06:36:55.950Z,99.90
2018-05-08T06:39:23.691Z,99.90
2018-05-08T06:41:51.097Z,99.90
2018-05-08T06:44:18.611Z,99.90
2018-05-08T06:46:46.088Z,99.90
2018-05-08T06:49:14.314Z,99.90
2018-05-08T06:51:41.909Z,99.90
2018-05-08T06:54:09.371Z,99.90
2018-05-08T06:56:36.850Z,99.90
2018-05-08T06:59:04.508Z,99.90
2018-05-08T07:01:31.957Z,99.90
2018-05-08T07:03:59.431Z,99.90
2018-05-08T07:06:26.975Z,99.90
2018-05-08T07:08:55.942Z,99.90
2018-05-08T07:11:23.425Z,99.90
2018-05-08T07:13:52.398Z,99.90
2018-05-08T07:16:19.875Z,99.90
2018-05-08T07:18:47.342Z,99.90
2018-05-08T07:21:15.103Z,99.90
2018-05-08T07:23:42.590Z,98.70
2018-05-08T07:26:10.046Z,97.80
2018-05-08T07:28:37.506Z,98.20
2018-05-08T07:31:05.051Z,98.70
2018-05-08T07:33:32.598Z,98.00
2018-05-08T07:36:01.079Z,97.00
2018-05-08T07:38:30.042Z,95.90
2018-05-08T07:40:57.525Z,95.90
2018-05-08T07:43:26.504Z,95.60
2018-05-08T07:45:53.961Z,95.60
2018-05-08T07:48:21.733Z,94.80
2018-05-08T07:50:49.186Z,94.60
2018-05-08T07:53:16.638Z,93.70
2018-05-08T07:55:44.114Z,93.40
2018-05-08T07:58:11.585Z,92.10
2018-05-08T08:00:39.118Z,92.00
2018-05-08T08:03:06.577Z,91.90
2018-05-08T08:05:34.262Z,91.10
2018-05-08T08:08:02.022Z,91.20
2018-05-08T08:10:29.522Z,91.30
2018-05-08T08:12:57.280Z,91.50
2018-05-08T08:15:25.016Z,89.10
2018-05-08T08:17:53.497Z,87.10
2018-05-08T08:20:20.950Z,86.90
2018-05-08T08:22:48.542Z,83.60
2018-05-08T08:25:16.764Z,80.50
2018-05-08T08:27:44.449Z,80.50
2018-05-08T08:30:11.915Z,78.20
2018-05-08T08:32:39.379Z,76.80
2018-05-08T08:35:06.839Z,72.60
2018-05-08T08:37:34.312Z,73.00
2018-05-08T08:40:02.197Z,69.70
2018-05-08T08:42:29.764Z,67.10
2018-05-08T08:44:57.286Z,65.40
2018-05-08T08:47:24.741Z,66.30
2018-05-08T08:49:52.406Z,63.30
2018-05-08T08:52:19.907Z,62.50
2018-05-08T08:54:47.372Z,60.40
2018-05-08T08:57:14.844Z,58.90
2018-05-08T08:59:42.294Z,56.40
2018-05-08T09:02:09.788Z,56.10
2018-05-08T09:04:37.255Z,53.90
2018-05-08T09:07:05.015Z,55.20
2018-05-08T09:09:32.474Z,53.00
2018-05-08T09:12:00.146Z,49.60
2018-05-08T09:14:27.598Z,49.20
2018-05-08T09:16:55.208Z,47.80
2018-05-08T09:19:22.915Z,47.50
2018-05-08T09:21:50.694Z,45.10
2018-05-08T09:24:18.450Z,42.80
2018-05-08T09:26:45.942Z,41.00
2018-05-08T09:29:13.474Z,41.30
2018-05-08T09:31:40.939Z,40.70
2018-05-08T09:34:09.199Z,39.80
2018-05-08T09:36:36.690Z,39.10
2018-05-08T09:39:04.262Z,40.00
2018-05-08T09:41:31.885Z,37.80
2018-05-08T09:43:59.354Z,38.20
2018-05-08T09:46:27.795Z,38.70
2018-05-08T09:48:55.519Z,38.70
2018-05-08T09:51:23.722Z,38.20
2018-05-08T09:53:51.327Z,38.30
2018-05-08T09:56:20.289Z,36.80
2018-05-08T09:58:47.754Z,36.80
2018-05-08T10:01:15.239Z,35.90
2018-05-08T10:03:44.202Z,35.00
2018-05-08T10:06:11.660Z,34.90
2018-05-08T10:08:39.151Z,33.30
2018-05-08T10:11:08.120Z,35.00
2018-05-08T10:13:35.593Z,35.00
2018-05-08T10:16:03.071Z,34.80
2018-05-08T10:18:30.565Z,34.90
2018-05-08T10:20:58.194Z,35.20
2018-05-08T10:23:25.721Z,33.90
2018-05-08T10:25:53.174Z,34.70
2018-05-08T10:28:20.638Z,34.00
2018-05-08T10:30:48.094Z,32.40
2018-05-08T10:33:15.583Z,33.10
2018-05-08T10:35:43.339Z,33.00
2018-05-08T10:38:10.798Z,33.00
2018-05-08T10:40:38.262Z,33.20
2018-05-08T10:43:05.722Z,32.90
2018-05-08T10:45:33.179Z,33.60
2018-05-08T10:48:00.935Z,33.40
2018-05-08T10:50:29.900Z,31.90
2018-05-08T10:52:57.381Z,31.80
2018-05-08T10:55:26.533Z,32.30
2018-05-08T10:57:53.999Z,32.30
2018-05-08T11:00:21.554Z,31.80
2018-05-08T11:02:49.011Z,31.40
2018-05-08T11:05:16.515Z,32.50
2018-05-08T11:07:43.979Z,31.80
2018-05-08T11:10:11.439Z,31.20
2018-05-08T11:12:39.005Z,31.20
2018-05-08T11:15:06.458Z,30.40
2018-05-08T11:17:33.956Z,30.50
2018-05-08T11:20:01.489Z,31.50
2018-05-08T11:22:29.032Z,30.00
2018-05-08T11:24:56.494Z,31.00
2018-05-08T11:27:24.255Z,30.10
2018-05-08T11:29:51.724Z,31.10
2018-05-08T11:32:19.479Z,30.00
2018-05-08T11:34:46.935Z,30.50
2018-05-08T11:37:14.619Z,29.70
2018-05-08T11:39:42.874Z,30.20
2018-05-08T11:42:10.395Z,30.10
2018-05-08T11:44:37.916Z,30.00
2018-05-08T11:47:06.161Z,29.80
2018-05-08T11:49:33.835Z,29.80
2018-05-08T11:52:01.598Z,28.70
2018-05-08T11:54:29.278Z,29.00
2018-05-08T11:56:57.511Z,29.30
2018-05-08T11:59:24.966Z,28.70
2018-05-08T12:01:52.436Z,28.90
2018-05-08T12:04:20.123Z,29.10
2018-05-08T12:06:47.583Z,28.90
2018-05-08T12:09:15.125Z,29.00
2018-05-08T12:11:42.525Z,28.30
2018-05-08T12:14:10.254Z,28.40
2018-05-08T12:16:38.611Z,28.30
2018-05-08T12:19:06.116Z,28.30
2018-05-08T12:21:33.726Z,27.80
2018-05-08T12:24:01.190Z,27.60
2018-05-08T12:26:28.693Z,28.00
2018-05-08T12:28:57.023Z,27.50
2018-05-08T12:31:24.534Z,27.40
2018-05-08T12:33:51.987Z,27.70
2018-05-08T12:36:20.211Z,27.80
2018-05-08T12:38:47.832Z,27.80
2018-05-08T12:41:15.294Z,27.00
2018-05-08T12:43:42.827Z,26.50
2018-05-08T12:46:10.333Z,26.90
2018-05-08T12:48:37.959Z,26.30
2018-05-08T12:51:05.426Z,26.00
2018-05-08T12:53:32.971Z,25.90
2018-05-08T12:56:00.670Z,26.00
2018-05-08T12:58:28.123Z,25.80
2018-05-08T13:00:55.575Z,26.20
2018-05-08T13:03:23.103Z,26.10
2018-05-08T13:05:50.554Z,25.90
2018-05-08T13:08:18.069Z,25.90
2018-05-08T13:10:45.542Z,26.20
2018-05-08T13:13:13.007Z,26.00
2018-05-08T13:15:40.619Z,25.80
2018-05-08T13:18:09.080Z,25.30
2018-05-08T13:20:36.782Z,25.30
2018-05-08T13:23:04.234Z,25.00
2018-05-08T13:25:31.694Z,24.50
2018-05-08T13:27:59.146Z,24.90
2018-05-08T13:30:26.610Z,25.60
2018-05-08T13:32:54.139Z,25.00
2018-05-08T13:35:21.912Z,25.80
2018-05-08T13:37:49.366Z,25.80
2018-05-08T13:40:16.888Z,25.70
2018-05-08T13:42:44.343Z,25.10
2018-05-08T13:45:11.970Z,25.40
2018-05-08T13:47:39.462Z,25.10
2018-05-08T13:50:06.917Z,25.70
2018-05-08T13:52:34.387Z,24.50
2018-05-08T13:55:01.864Z,24.70
2018-05-08T13:57:29.637Z,25.30
2018-05-08T13:59:57.111Z,25.80
2018-05-08T14:02:24.875Z,27.60
2018-05-08T14:04:52.463Z,26.50
2018-05-08T14:07:19.915Z,25.50
2018-05-08T14:09:48.160Z,25.20
2018-05-08T14:12:15.926Z,25.20
2018-05-08T14:14:43.390Z,24.70
2018-05-08T14:17:10.842Z,24.60
2018-05-08T14:19:38.307Z,26.10
2018-05-08T14:22:05.763Z,25.40
2018-05-08T14:24:33.535Z,25.30
2018-05-08T14:27:01.204Z,25.40
2018-05-08T14:29:28.672Z,25.10
2018-05-08T14:31:56.141Z,26.00
2018-05-08T14:34:23.596Z,25.40
2018-05-08T14:36:51.079Z,25.10
2018-05-08T14:39:18.535Z,25.30
2018-05-08T14:41:46.045Z,25.80
2018-05-08T14:44:13.511Z,26.30
2018-05-08T14:46:41.273Z,25.80
2018-05-08T14:49:08.936Z,25.40
2018-05-08T14:51:36.483Z,26.70
2018-05-08T14:54:03.955Z,26.30
2018-05-08T14:56:31.706Z,26.20
2018-05-08T14:58:59.233Z,25.60
2018-05-08T15:01:26.930Z,25.70
2018-05-08T15:03:54.403Z,25.90
2018-05-08T15:06:21.866Z,25.80
2018-05-08T15:08:49.326Z,26.70
2018-05-08T15:11:16.988Z,26.40
2018-05-08T15:13:45.362Z,26.20
2018-05-08T15:16:13.583Z,26.10
2018-05-08T15:18:41.049Z,26.10
2018-05-08T15:21:08.744Z,25.80
2018-05-08T15:23:36.506Z,25.80
2018-05-08T15:26:03.967Z,26.20
2018-05-08T15:28:31.448Z,26.90
2018-05-08T15:30:58.917Z,27.90
2018-05-08T15:33:26.566Z,28.60
2018-05-08T15:35:54.098Z,29.30
2018-05-08T15:38:21.588Z,30.30
2018-05-08T15:40:49.264Z,31.40
2018-05-08T15:43:16.790Z,30.60
2018-05-08T15:45:44.260Z,31.10
2018-05-08T15:48:12.552Z,33.90
2018-05-08T15:50:40.014Z,33.10
2018-05-08T15:53:08.410Z,32.10
2018-05-08T15:55:35.920Z,33.30
2018-05-08T15:58:03.447Z,34.30
2018-05-08T16:00:30.898Z,34.70
2018-05-08T16:02:58.364Z,35.30
2018-05-08T16:05:25.822Z,35.60
2018-05-08T16:07:53.705Z,35.00
2018-05-08T16:10:21.291Z,35.40
2018-05-08T16:12:48.750Z,35.70
2018-05-08T16:15:16.430Z,34.80
2018-05-08T16:17:43.883Z,35.50
2018-05-08T16:20:11.348Z,37.00
2018-05-08T16:22:38.882Z,37.10
2018-05-08T16:25:06.646Z,37.40
2018-05-08T16:27:34.103Z,37.30
2018-05-08T16:30:01.871Z,37.80
2018-05-08T16:32:29.363Z,38.20
2018-05-08T16:34:57.011Z,38.40
2018-05-08T16:37:24.487Z,38.60
2018-05-08T16:39:52.019Z,40.80
2018-05-08T16:42:19.503Z,39.70
2018-05-08T16:44:47.152Z,40.00
2018-05-08T16:47:14.691Z,39.80
2018-05-08T16:49:42.251Z,40.00
2018-05-08T16:52:09.711Z,40.30
2018-05-08T16:54:37.174Z,39.60
2018-05-08T16:57:04.630Z,40.40
2018-05-08T16:59:32.292Z,40.50
2018-05-08T17:01:59.751Z,40.20
2018-05-08T17:04:27.432Z,40.80
2018-05-08T17:06:54.895Z,40.50
2018-05-08T17:09:22.462Z,40.20
2018-05-08T17:11:49.914Z,40.70
2018-05-08T17:14:17.661Z,41.30
2018-05-08T17:16:45.462Z,41.40
2018-05-08T17:19:12.997Z,41.30
2018-05-08T17:21:40.638Z,42.30
2018-05-08T17:24:08.403Z,41.90
2018-05-08T17:26:37.380Z,42.50
2018-05-08T17:29:04.840Z,42.50
2018-05-08T17:31:32.334Z,42.20
2018-05-08T17:33:59.805Z,42.20
2018-05-08T17:36:27.696Z,41.60
2018-05-08T17:38:55.307Z,40.90
2018-05-08T17:41:23.078Z,40.90
2018-05-08T17:43:50.553Z,41.40
2018-05-08T17:46:18.331Z,41.80
2018-05-08T17:48:45.894Z,42.20
2018-05-08T17:51:13.467Z,42.30
2018-05-08T17:53:40.963Z,43.20
2018-05-08T17:56:08.597Z,43.10
2018-05-08T17:58:36.117Z,43.80
2018-05-08T18:01:03.663Z,44.40
2018-05-08T18:03:31.125Z,43.70
2018-05-08T18:05:58.582Z,44.10
2018-05-08T18:08:26.121Z,44.20
2018-05-08T18:10:53.647Z,44.50
2018-05-08T18:13:21.259Z,45.20
2018-05-08T18:15:48.707Z,45.30
2018-05-08T18:18:16.495Z,45.50
2018-05-08T18:20:43.960Z,45.60
2018-05-08T18:23:11.419Z,45.70
2018-05-08T18:25:39.168Z,45.60
2018-05-08T18:28:06.578Z,46.40
2018-05-08T18:30:34.035Z,46.70
2018-05-08T18:33:01.533Z,46.60
2018-05-08T18:35:28.991Z,47.20
2018-05-08T18:37:56.463Z,47.20
2018-05-08T18:40:24.219Z,47.20
2018-05-08T18:42:51.687Z,47.50
2018-05-08T18:45:19.143Z,48.50
2018-05-08T18:47:46.923Z,47.60
2018-05-08T18:50:14.659Z,48.40
2018-05-08T18:52:42.118Z,48.30
2018-05-08T18:55:09.794Z,47.90
2018-05-08T18:57:37.350Z,48.80
2018-05-08T19:00:10.499Z,49.30
2018-05-08T19:02:38.098Z,49.00
2018-05-08T19:05:05.709Z,49.40
2018-05-08T19:07:33.315Z,49.80
2018-05-08T19:10:00.782Z,50.40
2018-05-08T19:12:28.239Z,50.30
2018-05-08T19:15:01.411Z,50.00
2018-05-08T19:17:28.861Z,50.90
2018-05-08T19:20:02.005Z,51.00
2018-05-08T19:22:29.466Z,51.70
2018-05-08T19:24:57.194Z,51.70
2018-05-08T19:27:24.650Z,51.80
2018-05-08T19:29:57.679Z,51.90
2018-05-08T19:32:25.335Z,52.20
2018-05-08T19:34:58.547Z,51.80
2018-05-08T19:37:31.615Z,52.70
2018-05-08T19:39:59.079Z,52.50
2018-05-08T19:42:26.531Z,53.20
2018-05-08T19:44:54.019Z,53.40
2018-05-08T19:47:21.520Z,53.50
2018-05-08T19:49:48.978Z,53.50
2018-05-08T19:52:16.439Z,53.60
2018-05-08T19:54:44.223Z,53.80
2018-05-08T19:57:11.680Z,54.20
2018-05-08T19:59:39.140Z,54.40
2018-05-08T20:02:06.906Z,54.10
2018-05-08T20:04:34.353Z,56.20
2018-05-08T20:07:01.987Z,55.00
2018-05-08T20:09:29.446Z,55.30
2018-05-08T20:11:57.030Z,55.40
2018-05-08T20:14:24.492Z,55.60
2018-05-08T20:16:52.246Z,56.40
2018-05-08T20:19:20.015Z,57.10
2018-05-08T20:21:47.471Z,56.40
2018-05-08T20:24:14.946Z,55.90
2018-05-08T20:26:42.694Z,56.70
2018-05-08T20:29:10.160Z,57.10
2018-05-08T20:31:37.616Z,56.40
2018-05-08T20:34:05.374Z,56.90
2018-05-08T20:36:32.847Z,56.90
2018-05-08T20:39:00.302Z,57.10
2018-05-08T20:41:28.683Z,57.50
2018-05-08T20:43:56.143Z,57.70
2018-05-08T20:46:23.902Z,58.50
2018-05-08T20:48:51.599Z,58.70
2018-05-08T20:51:19.130Z,58.70
2018-05-08T20:53:46.883Z,59.00
2018-05-08T20:56:14.350Z,59.30
2018-05-08T20:58:41.810Z,59.50
2018-05-08T21:01:09.597Z,59.90
2018-05-08T21:03:36.922Z,60.20
2018-05-08T21:06:04.510Z,60.90
2018-05-08T21:08:31.971Z,60.80
2018-05-08T21:10:59.614Z,61.00
2018-05-08T21:13:27.113Z,61.60
2018-05-08T21:15:54.570Z,61.80
2018-05-08T21:18:22.077Z,62.50
2018-05-08T21:20:49.555Z,62.50
2018-05-08T21:23:17.279Z,63.10
2018-05-08T21:25:44.735Z,62.90
2018-05-08T21:28:17.771Z,63.00
2018-05-08T21:30:51.077Z,63.00
2018-05-08T21:33:18.508Z,62.90
2018-05-08T21:35:45.966Z,63.50
2018-05-08T21:38:13.469Z,63.10
2018-05-08T21:40:41.107Z,63.80
2018-05-08T21:43:08.639Z,63.60
2018-05-08T21:45:36.467Z,63.80
2018-05-08T21:48:04.173Z,64.30
2018-05-08T21:50:31.845Z,64.00
2018-05-08T21:52:59.394Z,65.00
2018-05-08T21:55:27.083Z,64.90
2018-05-08T21:57:54.542Z,64.90
2018-05-08T22:00:22.002Z,65.20
2018-05-08T22:02:49.539Z,65.40
2018-05-08T22:05:17.165Z,64.70
2018-05-08T22:07:44.623Z,64.80
2018-05-08T22:10:12.202Z,65.90
2018-05-08T22:12:39.875Z,66.70
2018-05-08T22:15:07.334Z,65.10
2018-05-08T22:17:34.903Z,65.00
2018-05-08T22:20:02.388Z,66.30
2018-05-08T22:22:29.828Z,65.50
2018-05-08T22:24:57.581Z,65.80
2018-05-08T22:27:25.343Z,66.50
2018-05-08T22:29:54.337Z,66.50
2018-05-08T22:32:23.384Z,65.60
2018-05-08T22:34:51.144Z,65.70
2018-05-08T22:37:18.883Z,65.60
2018-05-08T22:39:46.686Z,66.40
2018-05-08T22:42:14.311Z,66.20
2018-05-08T22:44:41.786Z,66.00
2018-05-08T22:47:09.247Z,65.10
2018-05-08T22:49:36.701Z,67.00
2018-05-08T22:52:04.157Z,66.70
2018-05-08T22:54:31.616Z,67.90
2018-05-08T22:56:59.142Z,67.20
2018-05-08T22:59:26.599Z,66.10
2018-05-08T23:01:54.281Z,66.10
2018-05-08T23:04:21.739Z,68.10
2018-05-08T23:06:49.202Z,67.20
2018-05-08T23:09:16.669Z,68.00
2018-05-08T23:11:44.118Z,68.30
2018-05-08T23:14:11.591Z,68.90
2018-05-08T23:16:39.042Z,68.60
2018-05-08T23:19:07.268Z,69.40
2018-05-08T23:21:34.950Z,69.40
2018-05-08T23:24:03.945Z,68.50
2018-05-08T23:26:32.190Z,70.70
2018-05-08T23:29:00.444Z,70.80
2018-05-08T23:31:27.899Z,70.80
2018-05-08T23:33:55.354Z,70.90
2018-05-08T23:36:22.883Z,72.10
2018-05-08T23:38:50.339Z,72.10
2018-05-08T23:41:17.802Z,71.70
2018-05-08T23:43:45.462Z,71.90
2018-05-08T23:46:13.026Z,71.80
2018-05-08T23:48:40.674Z,72.50
2018-05-08T23:51:09.647Z,73.10
2018-05-08T23:53:37.131Z,73.10
2018-05-08T23:56:06.370Z,73.30
2018-05-08T23:58:33.868Z,73.20
